Time,TemperatureF,DewpointF,PressureIn,WindDirection,WindDirectionDegrees,WindSpeedMPH,WindSpeedGustMPH,Humidity,HourlyPrecipIn,Conditions,Clouds,dailyrainin,SoftwareType,DateUTC
2013-05-03 00:00:00,40.0,-99.9,-100.00,ENE,71,2.0,6.0,-999,-99.99,,,0.00,,2013-05-03 07:00:00,
2013-05-03 00:52:00,41.0,-99.9,-100.00,North,-999,-999.0,-999.0,-999,-99.99,,,0.00,,2013-05-03 07:52:00,
2013-05-03 01:00:00,40.0,-99.9,-100.00,ENE,62,2.0,4.0,-999,-99.99,,,0.00,,2013-05-03 08:00:00,
2013-05-03 02:00:00,41.0,-99.9,-100.00,NE,55,3.0,6.0,-999,-99.99,,,0.01,,2013-05-03 09:00:00,
2013-05-03 03:00:00,37.0,-99.9,-100.00,ENE,57,3.0,6.0,-999,-99.99,,,0.01,,2013-05-03 10:00:00,
2013-05-03 04:00:00,38.0,-99.9,-100.00,NE,39,4.0,7.0,-999,-99.99,,,-99.99,,2013-05-03 11:00:00,
2013-05-03 05:00:00,36.0,-99.9,-100.00,NE,37,4.0,7.0,-999,-99.99,,,0.00,,2013-05-03 12:00:00,
2013-05-03 06:00:00,37.0,-99.9,-100.00,NE,39,6.0,9.0,-999,-99.99,,,0.00,,2013-05-03 13:00:00,
2013-05-03 07:00:00,37.0,-99.9,-100.00,NE,34,5.0,8.0,-999,-99.99,,,0.00,,2013-05-03 14:00:00,
2013-05-03 08:00:00,42.0,-99.9,-100.00,NNE,29,4.0,7.0,-999,-99.99,,,0.00,,2013-05-03 15:00:00,
2013-05-03 09:00:00,45.0,-99.9,-100.00,NW,319,5.0,10.0,-999,-99.99,,,-99.99,,2013-05-03 16:00:00,
2013-05-03 10:00:00,48.0,-99.9,-100.00,WSW,247,4.0,9.0,-999,-99.99,,,-99.99,,2013-05-03 17:00:00,
2013-05-03 11:00:00,50.0,-99.9,-100.00,SW,218,5.0,10.0,-999,-99.99,,,0.00,,2013-05-03 18:00:00,
2013-05-03 12:00:00,49.0,-99.9,-100.00,WNW,296,7.0,14.0,-999,-99.99,,,0.00,,2013-05-03 19:00:00,
2013-05-03 13:00:00,50.0,-99.9,-100.00,NW,316,9.0,14.0,-999,-99.99,,,0.00,,2013-05-03 20:00:00,
2013-05-03 14:00:00,48.0,-99.9,-100.00,NW,314,9.0,19.0,-999,-99.99,,,0.00,,2013-05-03 21:00:00,
2013-05-03 14:43:00,48.0,-99.9,-100.00,NW,314,9.0,19.0,-999,-99.99,,,0.00,,2013-05-03 21:43:00,
2013-05-03 14:53:00,48.0,-99.9,-100.00,NW,314,9.0,19.0,-999,-99.99,,,0.00,,2013-05-03 21:53:00,
2013-05-03 15:00:00,47.0,-99.9,-100.00,NW,310,9.0,18.0,-999,-99.99,,,0.00,,2013-05-03 22:00:00,
2013-05-03 15:42:00,47.0,-99.9,-100.00,NW,310,9.0,18.0,-999,-99.99,,,0.00,,2013-05-03 22:42:00,
2013-05-03 15:52:00,47.0,-99.9,-100.00,NW,310,9.0,18.0,-999,-99.99,,,0.00,,2013-05-03 22:52:00,
2013-05-03 16:00:00,48.0,-99.9,-100.00,NNW,334,9.0,15.0,-999,-99.99,,,0.00,,2013-05-03 23:00:00,
2013-05-03 16:52:00,48.0,-99.9,-100.00,NNW,334,9.0,15.0,-999,-99.99,,,0.00,,2013-05-03 23:52:00,
2013-05-03 17:00:00,47.0,-99.9,-100.00,NNW,345,10.0,20.0,-999,-99.99,,,-99.99,,2013-05-04 00:00:00,
2013-05-03 17:42:00,47.0,-99.9,-100.00,NNW,345,10.0,20.0,-999,-99.99,,,-99.99,,2013-05-04 00:42:00,
2013-05-03 17:52:00,47.0,-99.9,-100.00,NNW,345,10.0,20.0,-999,-99.99,,,-99.99,,2013-05-04 00:52:00,
2013-05-03 18:00:00,45.0,-99.9,-100.00,North,354,11.0,17.0,-999,-99.99,,,0.00,,2013-05-04 01:00:00,
2013-05-03 18:42:00,45.0,-99.9,-100.00,North,354,11.0,17.0,-999,-99.99,,,0.00,,2013-05-04 01:42:00,
2013-05-03 18:52:00,45.0,-99.9,-100.00,North,354,11.0,17.0,-999,-99.99,,,0.00,,2013-05-04 01:52:00,
2013-05-03 19:00:00,43.0,-99.9,-100.00,North,351,11.0,18.0,-999,-99.99,,,0.00,,2013-05-04 02:00:00,
2013-05-03 19:42:00,43.0,-99.9,-100.00,North,351,11.0,18.0,-999,-99.99,,,0.00,,2013-05-04 02:42:00,
2013-05-03 19:52:00,43.0,-99.9,-100.00,North,351,11.0,18.0,-999,-99.99,,,0.00,,2013-05-04 02:52:00,
2013-05-03 20:00:00,42.0,-99.9,-100.00,North,2,11.0,17.0,-999,-99.99,,,0.00,,2013-05-04 03:00:00,
2013-05-03 20:43:00,42.0,-99.9,-100.00,North,2,11.0,17.0,-999,-99.99,,,0.00,,2013-05-04 03:43:00,
2013-05-03 20:53:00,42.0,-99.9,-100.00,North,2,11.0,17.0,-999,-99.99,,,0.00,,2013-05-04 03:53:00,
2013-05-03 21:00:00,41.0,-99.9,-100.00,North,4,11.0,18.0,-999,-99.99,,,0.00,,2013-05-04 04:00:00,
2013-05-03 22:00:00,40.0,-99.9,-100.00,NNE,19,9.0,17.0,-999,-99.99,,,-99.99,,2013-05-04 05:00:00,
2013-05-03 22:43:00,40.0,-99.9,-100.00,NNE,19,9.0,17.0,-999,-99.99,,,0.00,,2013-05-04 05:43:00,
2013-05-03 22:52:00,40.0,-99.9,-100.00,NNE,19,9.0,17.0,-999,-99.99,,,-99.99,,2013-05-04 05:52:00,
2013-05-03 23:00:00,38.0,-99.9,-100.00,NNE,13,9.0,13.0,-999,-99.99,,,-99.99,,2013-05-04 06:00:00,
2013-05-03 23:42:00,38.0,-99.9,-100.00,NNE,13,9.0,13.0,-999,-99.99,,,-99.99,,2013-05-04 06:42:00,
2013-05-03 23:52:00,38.0,-99.9,-100.00,NNE,13,9.0,13.0,-999,-99.99,,,-99.99,,2013-05-04 06:52:00,